createdAt,value
2023-01-23T02:23:22.132Z,7.30
2023-01-23T02:25:53.404Z,6.10
2023-01-23T02:28:21.041Z,6.90
2023-01-23T02:30:48.120Z,6.60
2023-01-23T02:33:21.165Z,8.10
2023-01-23T02:35:48.676Z,6.30
2023-01-23T02:38:16.110Z,7.20
2023-01-23T02:40:43.261Z,6.90
2023-01-23T02:43:16.970Z,6.10
2023-01-23T02:45:49.512Z,6.60
2023-01-23T02:48:16.497Z,6.60
2023-01-23T02:50:46.552Z,7.10
2023-01-23T02:53:13.671Z,7.20
2023-01-23T02:55:43.595Z,6.10
2023-01-23T02:58:29.441Z,6.80
2023-01-23T03:00:56.451Z,7.50
2023-01-23T03:03:23.375Z,6.20
2023-01-23T03:05:54.523Z,6.10
2023-01-23T03:08:21.599Z,6.40
2023-01-23T03:10:48.520Z,6.60
2023-01-23T03:13:16.802Z,5.30
2023-01-23T03:15:43.777Z,6.00
2023-01-23T03:18:10.706Z,5.60
2023-01-23T03:20:41.217Z,5.70
2023-01-23T03:23:08.802Z,5.40
2023-01-23T03:25:35.754Z,5.40
2023-01-23T03:28:03.566Z,6.60
2023-01-23T03:30:30.910Z,5.60
2023-01-23T03:32:57.803Z,5.20
2023-01-23T03:35:24.662Z,5.70
2023-01-23T03:37:53.431Z,5.80
2023-01-23T03:40:41.698Z,5.70
2023-01-23T03:43:09.195Z,6.70
2023-01-23T03:45:38.389Z,5.30
2023-01-23T03:48:05.627Z,5.20
2023-01-23T03:50:33.199Z,4.80
2023-01-23T03:53:00.350Z,5.60
2023-01-23T03:55:27.707Z,5.80
2023-01-23T03:57:54.673Z,7.30
2023-01-23T04:00:28.075Z,6.70
2023-01-23T04:03:04.019Z,5.90
2023-01-23T04:05:31.625Z,6.90
2023-01-23T04:07:59.394Z,6.30
2023-01-23T04:10:26.499Z,6.70
2023-01-23T04:12:55.219Z,6.90
2023-01-23T04:15:22.753Z,8.90
2023-01-23T04:17:50.255Z,7.40
2023-01-23T04:20:17.276Z,8.30
2023-01-23T04:22:44.220Z,7.30
2023-01-23T04:25:11.489Z,7.10
2023-01-23T04:27:38.628Z,6.50
2023-01-23T04:30:06.995Z,7.80
2023-01-23T04:32:34.696Z,9.90
2023-01-23T04:35:02.174Z,8.90
2023-01-23T04:37:29.427Z,9.40
2023-01-23T04:39:56.715Z,7.80
2023-01-23T04:42:23.662Z,8.00
2023-01-23T04:45:12.763Z,7.60
2023-01-23T04:48:14.989Z,8.40
2023-01-23T04:50:43.197Z,9.30
2023-01-23T04:53:11.476Z,8.10
2023-01-23T04:55:38.643Z,9.00
2023-01-23T04:58:06.568Z,8.20
2023-01-23T05:00:33.561Z,8.80
2023-01-23T05:03:02.807Z,9.50
2023-01-23T05:05:30.121Z,7.60
2023-01-23T05:07:59.435Z,7.60
2023-01-23T05:10:26.377Z,8.90
2023-01-23T05:12:53.664Z,7.50
2023-01-23T05:15:21.502Z,9.20
2023-01-23T05:17:50.226Z,8.60
2023-01-23T05:20:17.782Z,9.00
2023-01-23T05:22:54.133Z,9.30
2023-01-23T05:25:28.157Z,9.20
2023-01-23T05:27:55.598Z,9.40
2023-01-23T05:30:23.655Z,10.50
2023-01-23T05:32:52.764Z,13.00
2023-01-23T05:35:21.600Z,9.90
2023-01-23T05:37:50.680Z,11.00
2023-01-23T05:40:20.845Z,11.90
2023-01-23T05:43:06.883Z,11.50
2023-01-23T05:45:54.057Z,9.60
2023-01-23T05:48:28.527Z,10.80
2023-01-23T05:50:55.681Z,11.10
2023-01-23T05:53:22.713Z,10.30
2023-01-23T05:55:50.021Z,10.10
2023-01-23T05:58:17.253Z,11.80
2023-01-23T06:01:03.931Z,12.40
2023-01-23T06:03:49.620Z,12.20
2023-01-23T06:06:36.498Z,15.00
2023-01-23T06:09:03.674Z,12.50
2023-01-23T06:11:31.642Z,10.90
2023-01-23T06:13:58.639Z,10.80
2023-01-23T06:16:25.633Z,10.90
2023-01-23T06:18:52.648Z,10.70
2023-01-23T06:21:19.884Z,10.00
2023-01-23T06:23:47.940Z,10.90
2023-01-23T06:26:15.475Z,11.20
2023-01-23T06:28:46.649Z,10.80
2023-01-23T06:31:13.940Z,11.60
2023-01-23T06:33:51.485Z,10.00
2023-01-23T06:36:19.089Z,14.60
2023-01-23T06:38:46.041Z,9.60
2023-01-23T06:41:13.378Z,12.20
2023-01-23T06:43:46.901Z,12.90
2023-01-23T06:46:17.465Z,11.40
2023-01-23T06:48:44.811Z,11.80
2023-01-23T06:51:51.851Z,11.60
2023-01-23T06:54:21.194Z,13.00
2023-01-23T06:56:50.214Z,14.00
2023-01-23T06:59:18.957Z,14.40
2023-01-23T07:01:46.057Z,14.10
2023-01-23T07:04:13.025Z,10.60
2023-01-23T07:06:40.594Z,9.10
2023-01-23T07:09:07.898Z,9.10
2023-01-23T07:11:37.165Z,10.70
2023-01-23T07:14:05.502Z,12.00
2023-01-23T07:16:33.111Z,12.50
2023-01-23T07:19:00.142Z,10.70
2023-01-23T07:21:31.898Z,12.00
2023-01-23T07:23:58.888Z,10.10
2023-01-23T07:26:26.313Z,8.80
2023-01-23T07:28:53.930Z,12.00
2023-01-23T07:31:20.927Z,12.40
2023-01-23T07:33:47.936Z,11.50
2023-01-23T07:36:15.175Z,10.60
2023-01-23T07:38:42.180Z,11.80
2023-01-23T07:41:09.295Z,12.20
2023-01-23T07:43:36.256Z,10.10
2023-01-23T07:46:03.281Z,14.20
2023-01-23T07:48:30.234Z,18.40
2023-01-23T07:50:58.881Z,15.40
2023-01-23T07:53:25.908Z,17.90
2023-01-23T07:55:52.840Z,13.30
2023-01-23T07:58:20.324Z,11.40
2023-01-23T08:00:47.250Z,11.40
2023-01-23T08:03:14.283Z,12.10
2023-01-23T08:05:43.616Z,11.50
2023-01-23T08:08:13.799Z,12.50
2023-01-23T08:10:41.706Z,10.00
2023-01-23T08:13:08.769Z,9.70
2023-01-23T08:15:37.344Z,11.70
2023-01-23T08:18:04.537Z,11.70
2023-01-23T08:20:31.460Z,10.80
2023-01-23T08:23:00.977Z,12.40
2023-01-23T08:25:28.578Z,12.40
2023-01-23T08:27:55.782Z,14.30
2023-01-23T08:30:23.004Z,12.20
2023-01-23T08:32:55.942Z,12.00
2023-01-23T08:35:22.875Z,14.30
2023-01-23T08:37:49.828Z,11.70
2023-01-23T08:40:17.831Z,12.60
2023-01-23T08:42:44.925Z,13.50
2023-01-23T08:45:11.933Z,12.50
2023-01-23T08:47:38.842Z,12.30
2023-01-23T08:50:06.608Z,14.90
2023-01-23T08:52:35.524Z,13.50
2023-01-23T08:55:02.724Z,12.20
2023-01-23T08:57:29.630Z,11.80
2023-01-23T08:59:56.723Z,12.30
2023-01-23T09:02:23.700Z,15.20
2023-01-23T09:04:50.796Z,14.50
2023-01-23T09:07:17.840Z,14.90
2023-01-23T09:09:44.714Z,12.60
2023-01-23T09:12:11.643Z,16.90
2023-01-23T09:14:38.691Z,15.20
2023-01-23T09:17:05.800Z,16.40
2023-01-23T09:19:33.126Z,15.80
2023-01-23T09:22:00.088Z,15.80
2023-01-23T09:24:28.218Z,12.80
2023-01-23T09:26:55.113Z,15.50
2023-01-23T09:29:22.046Z,16.20
2023-01-23T09:31:48.995Z,14.80
2023-01-23T09:34:17.270Z,15.70
2023-01-23T09:36:44.535Z,15.00
2023-01-23T09:39:11.946Z,16.10
2023-01-23T09:41:39.466Z,17.00
2023-01-23T09:44:34.341Z,18.10
2023-01-23T09:47:30.586Z,20.00
2023-01-23T09:50:02.865Z,18.90
2023-01-23T09:52:35.547Z,19.10
2023-01-23T09:55:21.110Z,21.80
2023-01-23T09:58:00.108Z,18.70
2023-01-23T10:00:30.183Z,20.00
2023-01-23T10:02:57.169Z,19.60
2023-01-23T10:05:47.232Z,16.80
2023-01-23T13:07:03.568Z,15.50
2023-01-23T13:09:42.922Z,15.30
2023-01-23T13:12:24.178Z,14.30
2023-01-23T13:15:15.550Z,16.00
2023-01-23T13:17:51.988Z,14.50
2023-01-23T13:20:44.800Z,14.00
2023-01-23T13:23:33.852Z,15.40
2023-01-23T13:26:16.288Z,15.40
2023-01-23T13:28:50.602Z,15.80
2023-01-23T13:31:40.612Z,14.30
2023-01-23T13:34:16.975Z,15.80
2023-01-23T13:36:45.087Z,13.60
2023-01-23T13:39:15.127Z,15.30
2023-01-23T13:41:42.775Z,15.60
2023-01-23T13:44:40.629Z,15.70
2023-01-23T18:06:21.424Z,19.50
2023-01-23T18:08:49.806Z,21.90
2023-01-23T18:11:22.777Z,21.90
2023-01-23T18:14:15.408Z,20.70
2023-01-23T18:16:45.671Z,18.60
2023-01-23T18:19:22.270Z,19.80
2023-01-23T18:21:52.942Z,19.00
2023-01-23T18:24:30.508Z,20.70
2023-01-23T18:27:17.951Z,22.80
2023-01-23T18:33:05.934Z,18.50
2023-01-23T18:36:12.590Z,18.20
2023-01-23T18:39:21.006Z,18.10
2023-01-23T18:42:04.666Z,17.90
2023-01-23T18:44:34.890Z,18.10
2023-01-23T18:47:05.792Z,16.40
2023-01-23T18:49:36.569Z,18.30
2023-01-23T18:52:12.935Z,17.80
2023-01-23T18:54:58.698Z,16.20
2023-01-23T18:57:33.235Z,21.90
2023-01-23T19:00:19.992Z,21.00
2023-01-23T19:02:53.131Z,19.70
2023-01-23T19:05:32.810Z,20.20
2023-01-23T19:08:01.664Z,20.00
2023-01-23T19:10:40.164Z,23.10
2023-01-23T19:13:18.442Z,21.30
2023-01-23T19:16:07.493Z,21.80
2023-01-23T19:18:48.215Z,22.50
2023-01-23T19:21:29.688Z,25.30
2023-01-23T19:24:10.069Z,23.80
2023-01-23T19:26:39.984Z,26.70
2023-01-23T19:29:21.012Z,22.90
2023-01-23T19:32:07.116Z,22.70
2023-01-23T19:34:35.901Z,18.70
2023-01-23T19:37:04.404Z,19.30
2023-01-23T19:39:33.477Z,19.90
2023-01-23T19:42:01.598Z,20.80
2023-01-23T19:44:30.471Z,20.30
2023-01-23T19:46:59.260Z,18.40
2023-01-23T19:49:27.454Z,17.20
2023-01-23T19:51:55.827Z,17.50
2023-01-23T19:54:24.599Z,18.80
2023-01-23T19:56:52.799Z,20.20
2023-01-23T19:59:21.242Z,19.70
2023-01-23T20:01:50.651Z,21.00
2023-01-23T20:04:20.891Z,22.00
2023-01-23T20:06:51.612Z,18.60
2023-01-23T20:09:20.473Z,17.20
2023-01-23T20:11:52.544Z,16.90
2023-01-23T20:14:22.791Z,20.10
2023-01-23T20:16:51.170Z,20.30
2023-01-23T20:19:19.618Z,19.20
2023-01-23T20:21:48.729Z,19.60
2023-01-23T20:24:17.155Z,19.40
2023-01-23T20:26:46.513Z,19.10
2023-01-23T20:29:14.965Z,20.80
2023-01-23T20:31:43.001Z,20.20
2023-01-23T20:34:11.299Z,19.10
2023-01-23T20:36:39.620Z,21.70
2023-01-23T20:39:07.807Z,21.60
2023-01-23T20:41:36.784Z,22.40
2023-01-23T20:44:05.012Z,20.30
2023-01-23T20:46:33.269Z,22.70
2023-01-23T20:49:02.351Z,23.70
2023-01-23T20:51:30.633Z,22.20
2023-01-23T20:53:59.444Z,21.20
2023-01-23T20:56:28.199Z,22.80
2023-01-23T20:59:15.173Z,18.50
2023-01-23T21:02:02.339Z,22.30
2023-01-23T21:04:34.453Z,21.60
2023-01-23T21:07:03.403Z,21.90
2023-01-23T21:09:31.880Z,20.10
2023-01-23T21:12:00.175Z,19.60
2023-01-23T21:14:28.824Z,19.50
2023-01-23T21:16:58.158Z,18.40
2023-01-23T21:19:26.676Z,16.70
2023-01-23T21:21:54.827Z,17.60
2023-01-23T21:24:23.110Z,15.80
2023-01-23T21:26:51.382Z,18.70
2023-01-23T21:29:19.543Z,20.20
2023-01-23T21:31:47.974Z,17.60
2023-01-23T21:34:16.232Z,16.50
2023-01-23T21:36:45.021Z,18.90
2023-01-23T21:39:14.510Z,17.90
2023-01-23T21:41:42.664Z,17.80
2023-01-23T21:44:12.165Z,17.30
2023-01-23T21:46:40.695Z,18.30
2023-01-23T21:49:08.922Z,15.90
2023-01-23T21:51:37.161Z,17.20
2023-01-23T21:54:05.641Z,15.60
2023-01-23T21:56:34.126Z,14.90
2023-01-23T21:59:02.254Z,12.50
2023-01-23T22:01:35.548Z,12.70
